Time;durP1;ratioP1;P1;durP2;ratioP2;P2;SDS_P1;SDS_P2;PMS_P1;PMS_P2;Temp;Humidity;BMP_temperature;BMP_pressure;BME280_temperature;BME280_humidity;BME280_pressure;Samples;Min_cycle;Max_cycle;Signal;HPM_P1;HPM_P2
2023/09/08 17:49:51;;;;;;;;;17.33;16.67;;;;;;;;5120689;27;1371455;-73
2023/09/08 17:52:16;;;;;;;;;18.33;16.67;;;;;;;;5147896;27;8825;-78
2023/09/08 17:54:42;;;;;;;;;18.00;18.00;;;;;;;;5148079;27;8816;-78
2023/09/08 17:57:07;;;;;;;;;21.00;20.33;;;;;;;;5129449;27;8797;-80
2023/09/08 17:59:32;;;;;;;;;19.00;18.67;;;;;;;;5147792;27;8793;-79
2023/09/08 18:01:57;;;;;;;;;19.00;17.00;;;;;;;;5146754;27;8829;-70
2023/09/08 18:04:23;;;;;;;;;18.33;16.33;;;;;;;;5147456;27;8849;-72
2023/09/08 18:06:48;;;;;;;;;16.67;16.00;;;;;;;;5147641;27;8889;-81
2023/09/08 18:09:31;;;;;;;;;18.67;16.33;;;;;;;;5147443;27;8917;-77
2023/09/08 18:11:57;;;;;;;;;16.50;16.50;;;;;;;;5129208;27;8839;-73
2023/09/08 18:14:22;;;;;;;;;20.00;18.67;;;;;;;;5147379;27;8790;-71
2023/09/08 18:16:49;;;;;;;;;17.00;14.67;;;;;;;;5147453;27;8813;-71
2023/09/08 18:19:15;;;;;;;;;17.25;17.25;;;;;;;;5147613;27;8877;-68
2023/09/08 18:21:40;;;;;;;;;16.67;16.67;;;;;;;;5145862;27;8785;-70
2023/09/08 18:24:05;;;;;;;;;15.00;15.00;;;;;;;;5108296;27;8962;-69
2023/09/08 18:26:30;;;;;;;;;17.00;16.33;;;;;;;;5125343;27;8922;-67
2023/09/08 18:28:56;;;;;;;;;19.33;18.33;;;;;;;;5138663;27;8849;-66
2023/09/08 18:31:21;;;;;;;;;17.67;17.67;;;;;;;;5126338;27;9004;-67
2023/09/08 18:33:46;;;;;;;;;17.33;17.00;;;;;;;;5126040;27;8784;-66
2023/09/08 18:36:12;;;;;;;;;28.00;25.33;;;;;;;;5126140;27;9510;-67
2023/09/08 18:38:37;;;;;;;;;19.00;17.33;;;;;;;;5126010;27;8812;-68
2023/09/08 18:41:02;;;;;;;;;19.33;18.67;;;;;;;;5125552;27;8830;-70
2023/09/08 18:43:27;;;;;;;;;22.00;21.00;;;;;;;;5125926;27;8791;-72
2023/09/08 18:45:53;;;;;;;;;24.00;24.00;;;;;;;;5126111;27;8910;-72
2023/09/08 18:48:18;;;;;;;;;28.33;25.67;;;;;;;;5125554;27;8915;-72
2023/09/08 18:50:43;;;;;;;;;21.67;21.67;;;;;;;;5107341;27;8827;-72
2023/09/08 18:53:12;;;;;;;;;20.00;20.00;;;;;;;;5124142;27;8814;-72
2023/09/08 18:55:38;;;;;;;;;21.50;20.25;;;;;;;;5127093;27;8828;-71
2023/09/08 18:58:04;;;;;;;;;34.50;31.75;;;;;;;;5145326;27;8801;-73
2023/09/08 19:00:30;;;;;;;;;36.50;32.50;;;;;;;;5139310;27;8866;-72
2023/09/08 19:02:55;;;;;;;;;17.67;17.33;;;;;;;;5125166;27;9555;-78
2023/09/08 19:05:21;;;;;;;;;16.67;15.00;;;;;;;;5123938;27;8770;-68
2023/09/08 19:07:46;;;;;;;;;20.33;20.00;;;;;;;;5132199;27;8855;-68
2023/09/08 19:10:11;;;;;;;;;20.67;20.67;;;;;;;;5132459;27;8789;-67
2023/09/08 19:12:37;;;;;;;;;15.00;14.00;;;;;;;;5131974;27;8790;-69
2023/09/08 19:15:02;;;;;;;;;16.67;16.67;;;;;;;;5132015;27;9511;-68
2023/09/08 19:17:29;;;;;;;;;18.67;17.33;;;;;;;;5113045;27;9523;-67
2023/09/08 19:19:54;;;;;;;;;18.67;18.00;;;;;;;;5132152;27;8790;-67
2023/09/08 19:22:20;;;;;;;;;19.67;18.67;;;;;;;;5131830;27;9046;-66
2023/09/08 19:24:45;;;;;;;;;17.67;16.00;;;;;;;;5131763;27;8865;-74
2023/09/08 19:27:12;;;;;;;;;19.67;18.00;;;;;;;;5112763;27;9541;-72
2023/09/08 19:29:37;;;;;;;;;15.50;15.50;;;;;;;;5132061;27;8813;-72
2023/09/08 19:32:02;;;;;;;;;18.67;17.33;;;;;;;;5132424;27;8993;-72
2023/09/08 19:34:28;;;;;;;;;23.00;19.67;;;;;;;;5131929;27;8822;-70
2023/09/08 19:36:53;;;;;;;;;30.00;26.50;;;;;;;;5132128;27;8812;-70
2023/09/08 19:39:19;;;;;;;;;20.00;18.67;;;;;;;;5132169;27;8785;-69
2023/09/08 19:41:44;;;;;;;;;20.00;19.67;;;;;;;;5131711;27;8853;-71
2023/09/08 19:44:09;;;;;;;;;17.67;17.33;;;;;;;;5132278;27;8804;-71
2023/09/08 19:46:35;;;;;;;;;21.00;20.67;;;;;;;;5132141;27;8813;-71
2023/09/08 19:49:01;;;;;;;;;17.75;17.00;;;;;;;;5113209;27;8832;-71
2023/09/08 19:51:26;;;;;;;;;15.67;14.67;;;;;;;;5131842;27;8789;-70
2023/09/08 19:53:51;;;;;;;;;15.67;15.67;;;;;;;;5131850;27;8797;-70
2023/09/08 19:56:16;;;;;;;;;14.67;14.67;;;;;;;;5113464;27;8794;-71
2023/09/08 19:58:42;;;;;;;;;17.00;15.67;;;;;;;;5131974;27;8797;-72
2023/09/08 20:01:09;;;;;;;;;15.33;15.00;;;;;;;;5132286;27;8778;-71
2023/09/08 20:03:34;;;;;;;;;18.00;18.00;;;;;;;;5132213;27;8992;-70
2023/09/08 20:06:00;;;;;;;;;16.00;15.33;;;;;;;;5113526;27;9114;-71
2023/09/08 20:08:25;;;;;;;;;16.67;15.00;;;;;;;;5131623;27;9534;-74
2023/09/08 20:10:52;;;;;;;;;19.00;16.00;;;;;;;;5131094;27;8889;-71
2023/09/08 20:13:17;;;;;;;;;17.33;14.67;;;;;;;;5131070;27;8804;-69
2023/09/08 20:15:42;;;;;;;;;15.67;14.67;;;;;;;;5112858;27;8979;-72
2023/09/08 20:18:08;;;;;;;;;17.00;16.67;;;;;;;;5131928;27;8809;-73
2023/09/08 20:20:34;;;;;;;;;15.67;15.67;;;;;;;;5131835;27;8824;-73
2023/09/08 20:22:59;;;;;;;;;14.00;13.00;;;;;;;;5131761;27;8778;-73
2023/09/08 20:25:25;;;;;;;;;14.33;14.33;;;;;;;;5131422;27;8873;-75
2023/09/08 20:27:51;;;;;;;;;16.67;16.00;;;;;;;;5103181;28;8827;-73
2023/09/08 20:30:16;;;;;;;;;17.00;15.00;;;;;;;;5130592;27;9060;-72
2023/09/08 20:32:41;;;;;;;;;14.33;14.00;;;;;;;;5131183;27;9532;-73
2023/09/08 20:35:08;;;;;;;;;14.67;14.67;;;;;;;;5131191;27;8805;-73
2023/09/08 20:37:34;;;;;;;;;17.00;16.00;;;;;;;;5130890;27;9585;-70
2023/09/08 20:39:59;;;;;;;;;13.67;13.00;;;;;;;;5131278;27;9246;-75
2023/09/08 20:42:24;;;;;;;;;14.00;13.00;;;;;;;;5128832;27;8802;-76
2023/09/08 20:44:49;;;;;;;;;13.67;12.33;;;;;;;;5126245;27;8798;-74
2023/09/08 20:47:16;;;;;;;;;15.67;14.67;;;;;;;;5128086;27;8814;-75
2023/09/08 20:49:41;;;;;;;;;15.00;13.67;;;;;;;;5129828;27;8821;-74
2023/09/08 20:52:11;;;;;;;;;15.00;15.00;;;;;;;;5108258;27;9609;-74
2023/09/08 20:54:37;;;;;;;;;15.00;14.33;;;;;;;;5112028;27;8805;-74
2023/09/08 20:57:02;;;;;;;;;14.33;14.33;;;;;;;;5130354;27;9215;-74
2023/09/08 20:59:28;;;;;;;;;16.33;16.33;;;;;;;;5111969;27;8959;-74
2023/09/08 21:01:53;;;;;;;;;15.00;14.33;;;;;;;;5130540;27;8804;-75
2023/09/08 21:04:19;;;;;;;;;15.00;15.00;;;;;;;;5130700;27;8809;-75
2023/09/08 21:06:44;;;;;;;;;12.33;12.33;;;;;;;;5130601;27;8798;-72
2023/09/08 21:09:10;;;;;;;;;14.67;13.33;;;;;;;;5111805;27;8945;-72
2023/09/08 21:11:35;;;;;;;;;15.00;15.00;;;;;;;;5128965;27;8778;-72
2023/09/08 21:14:00;;;;;;;;;15.67;14.00;;;;;;;;5130029;27;8820;-72
2023/09/08 21:16:26;;;;;;;;;15.00;15.00;;;;;;;;5112266;27;9609;-72
2023/09/08 21:18:52;;;;;;;;;13.33;13.33;;;;;;;;5130888;27;8802;-71
2023/09/08 21:21:18;;;;;;;;;14.33;14.00;;;;;;;;5112336;27;8939;-72
2023/09/08 21:23:43;;;;;;;;;16.00;15.00;;;;;;;;5130411;27;9338;-73
2023/09/08 21:26:08;;;;;;;;;15.33;15.33;;;;;;;;5130446;27;8800;-73
2023/09/08 21:28:34;;;;;;;;;16.00;16.00;;;;;;;;5094840;27;8834;-73
2023/09/08 21:31:07;;;;;;;;;14.67;14.67;;;;;;;;5130455;27;8806;-73
2023/09/08 21:33:33;;;;;;;;;21.00;17.33;;;;;;;;5130786;27;8948;-72
2023/09/08 21:35:58;;;;;;;;;15.33;13.67;;;;;;;;5130671;27;9164;-72
2023/09/08 21:38:24;;;;;;;;;12.67;12.67;;;;;;;;5130397;27;12141;-73
2023/09/08 21:40:49;;;;;;;;;15.67;14.33;;;;;;;;5130508;27;8799;-73
2023/09/08 21:43:14;;;;;;;;;17.00;16.00;;;;;;;;5130467;27;8844;-72
2023/09/08 21:45:39;;;;;;;;;15.00;14.00;;;;;;;;5130377;27;8894;-72
2023/09/08 21:48:05;;;;;;;;;15.00;15.00;;;;;;;;5130236;27;8817;-72
2023/09/08 21:50:30;;;;;;;;;14.33;13.67;;;;;;;;5130520;27;8797;-73
2023/09/08 21:52:56;;;;;;;;;15.00;14.00;;;;;;;;5130582;27;8792;-73
2023/09/08 21:55:21;;;;;;;;;14.00;12.33;;;;;;;;5130211;27;11462;-72
2023/09/08 21:57:49;;;;;;;;;15.67;15.67;;;;;;;;5130035;27;9644;-73
2023/09/08 22:00:15;;;;;;;;;13.67;13.67;;;;;;;;5112221;27;8789;-73
2023/09/08 22:02:41;;;;;;;;;15.67;15.00;;;;;;;;5130300;27;8962;-73
2023/09/08 22:05:06;;;;;;;;;17.33;15.00;;;;;;;;5130242;27;9252;-71
2023/09/08 22:07:31;;;;;;;;;14.00;13.00;;;;;;;;5111447;27;8817;-71
2023/09/08 22:09:56;;;;;;;;;17.00;15.00;;;;;;;;5130153;27;8785;-71
2023/09/08 22:12:22;;;;;;;;;17.00;17.00;;;;;;;;5129994;27;8802;-71
2023/09/08 22:14:50;;;;;;;;;13.67;13.67;;;;;;;;5130087;27;8821;-71
2023/09/08 22:17:15;;;;;;;;;15.00;13.67;;;;;;;;5130048;27;8896;-71
2023/09/08 22:19:41;;;;;;;;;14.00;14.00;;;;;;;;5130168;27;10055;-71
